Time;durP1;ratioP1;P1;durP2;ratioP2;P2;SDS_P1;SDS_P2;PMS_P1;PMS_P2;Temp;Humidity;BMP_temperature;BMP_pressure;BME280_temperature;BME280_humidity;BME280_pressure;Samples;Min_cycle;Max_cycle;Signal;HPM_P1;HPM_P2
2023/07/10 00:00:53;;;;;;;6.83;4.17;;;;;;;27.28;40.55;98890.88;6998633;28;20725;-85
2023/07/10 00:04:16;;;;;;;7.90;4.80;;;;;;;27.11;41.10;98890.66;6998479;28;20340;-85
2023/07/10 00:07:38;;;;;;;5.90;4.70;;;;;;;26.92;40.85;98840.16;6997667;28;20262;-86
2023/07/10 00:11:00;;;;;;;7.50;4.87;;;;;;;27.29;40.45;98888.91;7007644;28;20203;-85
2023/07/10 00:14:26;;;;;;;4.87;4.30;;;;;;;26.54;41.24;98816.63;7017686;28;20661;-88
2023/07/10 00:17:51;;;;;;;4.83;4.03;;;;;;;26.96;41.36;98876.34;6980370;28;20237;-85
2023/07/10 00:21:13;;;;;;;8.03;5.00;;;;;;;26.78;41.63;98891.91;6994400;28;20207;-86
2023/07/10 00:24:35;;;;;;;5.23;4.47;;;;;;;26.38;42.63;98881.66;6996753;28;20203;-85
2023/07/10 00:27:57;;;;;;;6.00;4.50;;;;;;;25.93;43.51;98882.47;6998014;28;20283;-87
2023/07/10 00:31:18;;;;;;;7.83;4.87;;;;;;;25.34;45.16;98892.47;6998121;28;20728;-87
2023/07/10 00:34:41;;;;;;;5.10;4.50;;;;;;;25.99;43.44;98891.47;6996921;28;20299;-87
2023/07/10 00:38:14;;;;;;;6.43;4.53;;;;;;;25.67;44.06;98880.38;6996769;28;20278;-87
2023/07/10 00:41:38;;;;;;;6.07;4.67;;;;;;;26.43;42.51;98867.69;6996812;28;20241;-87
2023/07/10 00:45:00;;;;;;;6.20;4.37;;;;;;;26.02;43.37;98866.81;6997268;28;20208;-87
2023/07/10 00:48:31;;;;;;;5.33;4.30;;;;;;;26.00;43.57;98907.75;6996182;28;20368;-87
2023/07/10 00:52:00;;;;;;;7.10;4.20;;;;;;;26.10;43.11;98920.56;6997271;28;20193;-87
2023/07/10 00:55:24;;;;;;;6.00;4.70;;;;;;;26.41;42.18;98905.91;6996654;28;20303;-87
2023/07/10 00:58:48;;;;;;;8.03;4.47;;;;;;;26.52;42.01;98907.34;6996619;28;20375;-87
2023/07/10 01:02:23;;;;;;;6.43;4.30;;;;;;;26.48;41.53;98909.09;6996918;28;20213;-87
2023/07/10 01:05:45;;;;;;;7.37;4.60;;;;;;;26.67;41.61;98909.84;6996108;28;20248;-87
2023/07/10 01:09:09;;;;;;;6.77;4.97;;;;;;;26.62;41.94;98928.50;6996261;28;20698;-87
2023/07/10 01:12:31;;;;;;;7.40;4.93;;;;;;;26.62;41.69;98939.56;6996496;28;20344;-87
2023/07/10 01:15:52;;;;;;;7.37;4.40;;;;;;;26.90;41.00;98953.09;6995684;28;20314;-87
2023/07/10 01:19:17;;;;;;;9.20;5.17;;;;;;;26.72;41.55;98965.09;6996451;28;20274;-87
2023/07/10 01:22:40;;;;;;;5.67;4.37;;;;;;;26.59;41.88;98982.50;6996562;28;20249;-88
2023/07/10 01:26:08;;;;;;;7.30;4.90;;;;;;;26.37;41.55;98938.03;6994180;28;20347;-87
2023/07/10 01:29:33;;;;;;;6.17;5.10;;;;;;;26.18;42.63;98983.47;6996129;28;20223;-87
2023/07/10 01:32:56;;;;;;;4.90;4.40;;;;;;;26.48;42.05;98983.75;6991617;28;20547;-87
2023/07/10 01:36:20;;;;;;;5.50;4.17;;;;;;;26.81;41.53;98985.41;6995332;28;20301;-87
2023/07/10 01:39:46;;;;;;;5.37;4.60;;;;;;;26.35;42.50;98987.31;6995487;28;20841;-87
2023/07/10 01:43:10;;;;;;;5.63;4.73;;;;;;;26.78;41.67;98982.44;6996343;28;20221;-87
2023/07/10 01:46:31;;;;;;;6.43;4.47;;;;;;;26.10;42.96;98981.38;6995170;28;20335;-87
2023/07/10 01:49:56;;;;;;;6.53;4.30;;;;;;;26.04;43.08;98982.59;6995394;28;20376;-87
2023/07/10 01:53:17;;;;;;;6.40;4.93;;;;;;;26.22;42.61;98974.28;6999250;28;20715;-86
2023/07/10 01:56:40;;;;;;;8.23;4.40;;;;;;;25.96;43.22;98959.22;6999928;28;20278;-87
2023/07/10 02:00:02;;;;;;;7.63;4.30;;;;;;;25.67;44.21;98950.22;7000567;28;20206;-87
2023/07/10 02:03:24;;;;;;;5.00;4.30;;;;;;;25.74;44.08;98958.16;7000873;28;20220;-87
2023/07/10 02:06:45;;;;;;;8.10;4.60;;;;;;;25.60;44.10;98947.03;6999859;28;20232;-85
2023/07/10 02:10:07;;;;;;;7.00;4.13;;;;;;;25.23;44.58;98921.31;7000575;28;20258;-87
2023/07/10 02:13:30;;;;;;;5.80;4.00;;;;;;;25.71;43.86;98934.72;7000243;28;20286;-87
2023/07/10 02:16:51;;;;;;;6.67;4.27;;;;;;;25.06;45.09;98932.03;6999821;28;20225;-86
2023/07/10 02:20:13;;;;;;;7.17;4.43;;;;;;;24.96;44.06;98863.19;7000587;28;20731;-86
2023/07/10 02:23:40;;;;;;;6.07;4.27;;;;;;;25.89;43.18;98922.03;6999634;28;20288;-86
2023/07/10 02:27:01;;;;;;;6.23;4.57;;;;;;;26.18;42.55;98929.00;7000102;28;20233;-86
2023/07/10 02:30:24;;;;;;;9.47;4.97;;;;;;;26.31;42.20;98917.16;7000848;28;20202;-86
2023/07/10 02:33:45;;;;;;;5.47;4.37;;;;;;;25.96;42.98;98917.75;7000173;28;20198;-86
2023/07/10 02:37:07;;;;;;;5.70;4.30;;;;;;;26.12;43.10;98930.22;7000181;28;20777;-86
2023/07/10 02:40:29;;;;;;;5.40;4.47;;;;;;;26.40;42.21;98928.31;7000507;28;20211;-86
2023/07/10 02:43:50;;;;;;;6.00;4.10;;;;;;;25.65;43.80;98943.41;6999958;28;20198;-86
2023/07/10 02:47:13;;;;;;;5.93;4.67;;;;;;;25.03;45.70;98938.16;6999260;28;20579;-86
2023/07/10 02:50:34;;;;;;;5.77;4.40;;;;;;;25.27;45.17;98958.28;7000076;28;20202;-86
2023/07/10 02:53:56;;;;;;;8.27;4.60;;;;;;;25.71;44.21;98978.91;6999878;28;20547;-86
2023/07/10 02:57:17;;;;;;;7.90;4.83;;;;;;;25.51;44.94;98987.50;6999455;28;20221;-86
2023/07/10 03:00:39;;;;;;;6.00;4.10;;;;;;;25.65;44.83;98991.16;6999934;28;20353;-86
2023/07/10 03:04:02;;;;;;;5.63;4.90;;;;;;;25.55;44.77;98988.53;6999474;28;20272;-86
2023/07/10 03:07:23;;;;;;;6.10;4.27;;;;;;;25.87;43.77;98955.47;6999545;28;20230;-86
2023/07/10 03:10:45;;;;;;;6.43;4.37;;;;;;;26.00;43.51;98990.66;7000134;28;20233;-86
2023/07/10 03:14:06;;;;;;;4.73;4.13;;;;;;;25.37;45.24;98991.28;6999700;28;20255;-86
2023/07/10 03:17:28;;;;;;;5.80;4.07;;;;;;;24.32;46.97;98896.75;6999272;28;20223;-86
2023/07/10 03:20:51;;;;;;;6.40;4.43;;;;;;;24.30;49.34;99020.22;6999406;28;20692;-86
2023/07/10 03:24:14;;;;;;;6.17;4.33;;;;;;;25.45;46.14;99007.19;6997854;28;20298;-86
2023/07/10 03:27:47;;;;;;;5.40;4.43;;;;;;;25.72;45.86;99013.69;6992581;28;20221;-86
2023/07/10 03:31:09;;;;;;;8.23;4.60;;;;;;;25.78;45.50;99031.03;6998910;28;20194;-86
2023/07/10 03:34:30;;;;;;;5.00;4.27;;;;;;;25.69;45.22;99027.28;6999055;28;20639;-86
2023/07/10 03:37:53;;;;;;;6.37;4.73;;;;;;;25.39;46.08;98994.56;6998637;28;20382;-86
2023/07/10 03:41:15;;;;;;;5.17;4.50;;;;;;;25.56;46.07;98997.66;6999415;28;20266;-86
2023/07/10 03:44:36;;;;;;;5.90;4.20;;;;;;;25.40;45.33;98927.19;6999358;28;20225;-86
2023/07/10 03:47:58;;;;;;;5.00;4.50;;;;;;;25.82;45.38;99009.97;6998233;28;20237;-86
2023/07/10 03:51:20;;;;;;;8.67;4.60;;;;;;;25.99;44.62;99007.53;6998773;28;20280;-87
2023/07/10 03:54:42;;;;;;;7.17;4.37;;;;;;;25.86;45.16;99013.78;7008047;28;20257;-88
2023/07/10 03:58:17;;;;;;;8.03;4.60;;;;;;;25.91;45.28;99036.69;7020459;28;20242;-87
2023/07/10 04:01:40;;;;;;;5.67;4.20;;;;;;;26.15;44.74;99042.94;7020147;28;20200;-88
2023/07/10 04:05:01;;;;;;;7.40;4.80;;;;;;;25.61;45.79;99039.00;7005359;28;20196;-86
2023/07/10 04:08:24;;;;;;;5.10;4.53;;;;;;;25.93;44.81;99037.19;6997673;28;20320;-86
2023/07/10 04:11:47;;;;;;;5.03;4.23;;;;;;;26.05;45.22;99054.16;6992594;28;20608;-86
2023/07/10 04:15:09;;;;;;;5.87;3.97;;;;;;;25.86;45.20;99003.56;6998166;28;20323;-87
2023/07/10 04:18:31;;;;;;;5.50;4.30;;;;;;;26.63;43.74;99054.63;6996967;28;20274;-85
2023/07/10 04:21:53;;;;;;;6.53;4.57;;;;;;;25.98;45.46;99073.06;6996072;28;20276;-86
2023/07/10 04:25:15;;;;;;;6.57;4.60;;;;;;;25.71;45.96;99056.25;6997080;28;20275;-88
2023/07/10 04:28:37;;;;;;;8.33;5.10;;;;;;;25.38;47.50;99040.69;6995455;28;20349;-88
2023/07/10 04:31:59;;;;;;;5.33;4.57;;;;;;;25.77;46.14;99035.72;6989462;28;20262;-85
2023/07/10 04:35:20;;;;;;;5.90;4.60;;;;;;;26.25;45.33;99073.19;6997362;28;20252;-85
2023/07/10 04:38:42;;;;;;;5.67;4.67;;;;;;;26.43;45.01;99077.06;6996920;28;20233;-86
2023/07/10 04:42:04;;;;;;;7.40;4.50;;;;;;;26.12;45.59;99065.66;6996279;28;21052;-87
2023/07/10 04:45:27;;;;;;;5.87;4.87;;;;;;;26.14;45.78;99066.16;6996171;28;20203;-85
2023/07/10 04:48:49;;;;;;;6.60;4.20;;;;;;;26.61;45.18;99099.16;6995998;28;20312;-85
2023/07/10 04:52:10;;;;;;;8.27;4.23;;;;;;;26.97;44.21;99074.50;6996783;28;20213;-86
2023/07/10 04:55:32;;;;;;;6.10;5.03;;;;;;;26.66;45.07;99081.69;6995998;28;20366;-86
2023/07/10 04:58:55;;;;;;;8.53;4.70;;;;;;;26.81;44.94;99090.53;6997552;28;20660;-85
2023/07/10 05:02:17;;;;;;;5.33;4.40;;;;;;;26.87;44.40;99078.25;7000177;28;20214;-85
2023/07/10 05:05:39;;;;;;;8.90;4.40;;;;;;;26.47;45.29;99076.16;6998734;28;20207;-84
2023/07/10 05:09:01;;;;;;;9.07;4.90;;;;;;;26.43;45.88;99085.34;7000302;28;20304;-86
2023/07/10 05:12:22;;;;;;;7.40;4.57;;;;;;;26.59;45.39;99061.88;6998496;28;20288;-84
2023/07/10 05:15:44;;;;;;;6.50;4.80;;;;;;;26.91;45.16;99079.31;6999661;28;20229;-86
2023/07/10 05:19:07;;;;;;;7.60;4.77;;;;;;;27.60;43.83;99115.09;6999465;28;20710;-85
2023/07/10 05:22:28;;;;;;;7.67;4.53;;;;;;;27.62;43.91;99128.63;6997017;28;20336;-85
2023/07/10 05:25:58;;;;;;;5.33;4.67;;;;;;;27.90;43.27;99136.66;6999408;28;20623;-85
2023/07/10 05:29:19;;;;;;;8.93;5.13;;;;;;;28.57;42.93;99113.53;7007655;28;20218;-84
2023/07/10 05:32:41;;;;;;;5.97;5.27;;;;;;;28.86;41.01;99108.38;7004102;28;20295;-87
2023/07/10 05:36:05;;;;;;;7.20;5.57;;;;;;;28.62;42.22;99096.75;7000559;28;20618;-87
2023/07/10 05:39:29;;;;;;;7.50;5.50;;;;;;;28.80;41.94;99094.91;7000961;28;20313;-87
2023/07/10 05:42:50;;;;;;;10.00;4.93;;;;;;;29.25;41.29;99105.66;7001709;28;20209;-85
2023/07/10 05:46:13;;;;;;;8.97;6.07;;;;;;;29.41;40.34;99073.56;7000715;28;20267;-85
2023/07/10 05:49:35;;;;;;;7.77;5.33;;;;;;;30.39;37.97;99091.47;7002874;28;20251;-87
2023/07/10 05:52:58;;;;;;;6.67;5.23;;;;;;;29.98;38.48;98993.75;7004485;28;20566;-85
2023/07/10 05:56:23;;;;;;;7.50;4.70;;;;;;;30.55;37.06;99025.84;7001780;28;20221;-87
2023/07/10 05:59:44;;;;;;;6.20;5.10;;;;;;;30.76;37.47;99065.78;7001078;28;20228;-87
2023/07/10 06:03:06;;;;;;;7.57;5.00;;;;;;;30.96;37.79;99148.66;7000722;28;20247;-88
2023/07/10 06:06:27;;;;;;;10.60;4.90;;;;;;;31.15;36.40;99133.22;7001384;28;20206;-87
2023/07/10 06:09:50;;;;;;;6.27;5.00;;;;;;;31.24;37.03;99167.47;7002604;28;20225;-87
2023/07/10 06:13:12;;;;;;;7.07;4.87;;;;;;;30.78;36.01;99038.44;7000706;28;20661;-87
2023/07/10 06:16:33;;;;;;;5.80;4.40;;;;;;;31.74;36.73;99151.78;6998084;28;20351;-86
2023/07/10 06:19:55;;;;;;;7.90;4.70;;;;;;;32.57;35.10;99141.59;7001062;28;20765;-87
2023/07/10 06:23:16;;;;;;;9.97;4.53;;;;;;;33.12;34.20;99151.31;7000040;28;20209;-88
2023/07/10 06:26:39;;;;;;;7.40;4.87;;;;;;;32.54;35.08;99142.28;6999640;28;20654;-87
2023/07/10 06:30:02;;;;;;;6.20;4.73;;;;;;;32.23;36.14;99111.09;7000611;28;20289;-86
2023/07/10 06:33:23;;;;;;;6.50;5.03;;;;;;;31.56;37.44;99121.47;6994774;28;20212;-87
2023/07/10 06:36:45;;;;;;;9.60;5.20;;;;;;;32.63;35.60;99106.72;6999395;28;20214;-88
2023/07/10 06:40:08;;;;;;;6.80;5.00;;;;;;;32.15;35.38;99109.19;6999266;28;20240;-88
2023/07/10 06:43:31;;;;;;;7.83;5.97;;;;;;;32.08;36.12;99108.94;7002818;28;20280;-87
2023/07/10 06:46:53;;;;;;;8.43;5.40;;;;;;;32.56;34.52;99033.84;7019617;28;20217;-86
2023/07/10 06:50:15;;;;;;;9.70;5.53;;;;;;;32.79;34.44;99080.63;7017456;28;20701;-87
2023/07/10 06:53:37;;;;;;;9.70;5.90;;;;;;;33.28;33.88;99102.03;7005946;28;20205;-87
2023/07/10 06:57:03;;;;;;;6.40;5.40;;;;;;;33.05;34.61;99105.53;6999194;28;20320;-87
2023/07/10 07:00:26;;;;;;;10.03;5.90;;;;;;;33.81;33.68;99104.66;6999994;28;20186;-87
2023/07/10 07:03:47;;;;;;;11.03;5.50;;;;;;;34.42;31.76;99094.25;6999597;28;20194;-87
2023/07/10 07:07:09;;;;;;;8.37;5.43;;;;;;;35.05;31.82;99119.34;6999791;28;20248;-87
2023/07/10 07:10:32;;;;;;;6.17;5.30;;;;;;;35.24;31.31;99107.47;7000401;28;20691;-85
2023/07/10 07:13:54;;;;;;;8.63;5.37;;;;;;;35.98;29.37;99125.09;7001456;28;20228;-84
2023/07/10 07:17:17;;;;;;;11.07;5.63;;;;;;;35.65;30.13;99133.03;7002223;28;20229;-84
2023/07/10 07:20:39;;;;;;;8.90;5.67;;;;;;;35.21;31.63;99141.81;7006033;28;20202;-84
2023/07/10 07:24:00;;;;;;;5.63;4.93;;;;;;;35.17;31.25;99155.75;7005844;28;20254;-84
2023/07/10 07:27:23;;;;;;;7.03;5.27;;;;;;;34.78;31.63;99153.78;7004086;28;20230;-85
2023/07/10 07:30:48;;;;;;;6.57;5.67;;;;;;;34.03;32.59;99167.75;7000460;28;20209;-85
2023/07/10 07:34:10;;;;;;;8.23;5.73;;;;;;;33.73;32.94;99157.91;6999197;28;20210;-84
2023/07/10 07:37:32;;;;;;;10.97;5.57;;;;;;;33.57;33.80;99160.56;7003532;28;20290;-83
2023/07/10 07:40:53;;;;;;;6.83;5.13;;;;;;;33.85;33.04;99149.56;7001396;28;20206;-85
2023/07/10 07:44:15;;;;;;;8.00;5.50;;;;;;;33.72;33.33;99145.88;6998275;28;20736;-86
2023/07/10 07:47:37;;;;;;;10.17;5.20;;;;;;;33.93;32.91;99145.81;6998899;28;20766;-85
2023/07/10 07:51:02;;;;;;;8.47;5.40;;;;;;;33.55;33.56;99145.28;6998448;28;20229;-85
2023/07/10 07:54:25;;;;;;;6.27;5.50;;;;;;;32.46;34.11;99049.06;6999374;28;20204;-85
2023/07/10 07:57:50;;;;;;;6.93;5.30;;;;;;;33.40;34.37;99145.94;6998644;28;20230;-85
2023/07/10 08:01:12;;;;;;;11.13;5.47;;;;;;;34.41;33.22;99146.63;6999674;28;20216;-85
2023/07/10 08:04:33;;;;;;;8.80;5.57;;;;;;;35.03;32.33;99149.72;6998864;28;20213;-86
2023/07/10 08:07:56;;;;;;;6.53;5.27;;;;;;;34.96;32.53;99154.31;6997268;28;20702;-85
2023/07/10 08:11:18;;;;;;;7.90;5.23;;;;;;;34.37;32.96;99153.28;6998294;28;20614;-86
2023/07/10 08:14:40;;;;;;;10.97;4.77;;;;;;;34.07;33.29;99144.28;6998788;28;20655;-85
2023/07/10 08:18:02;;;;;;;6.20;4.33;;;;;;;34.59;32.61;99133.16;6998069;28;20241;-85
2023/07/10 08:21:23;;;;;;;5.13;3.60;;;;;;;35.35;31.66;99119.78;6999067;28;20264;-86
2023/07/10 08:24:46;;;;;;;4.30;3.83;;;;;;;35.76;31.35;99142.59;6995671;28;20285;-86
2023/07/10 08:28:08;;;;;;;7.07;4.07;;;;;;;35.27;31.82;99138.44;6997517;28;20253;-85
2023/07/10 08:31:30;;;;;;;5.97;3.53;;;;;;;35.27;32.07;99132.00;6997241;28;20209;-85
2023/07/10 08:34:51;;;;;;;4.83;3.60;;;;;;;34.10;33.32;99146.41;6990330;28;20285;-85
2023/07/10 08:38:13;;;;;;;4.13;3.60;;;;;;;34.66;33.03;99108.97;6996137;28;20713;-87
2023/07/10 08:41:36;;;;;;;4.43;3.40;;;;;;;35.48;31.87;99141.81;6997594;28;20292;-84
2023/07/10 08:44:57;;;;;;;6.07;3.63;;;;;;;35.61;31.98;99145.34;6997879;28;20858;-85
2023/07/10 08:48:26;;;;;;;6.23;3.50;;;;;;;35.29;32.12;99144.50;6995842;28;20226;-85
2023/07/10 08:51:53;;;;;;;4.97;3.80;;;;;;;34.56;33.50;99117.06;6999758;28;20208;-83
2023/07/10 08:55:22;;;;;;;6.33;4.40;;;;;;;35.97;31.64;99143.09;6998618;28;20284;-85
2023/07/10 08:58:45;;;;;;;4.87;4.13;;;;;;;35.62;32.38;99150.63;7011697;28;20275;-85
2023/07/10 09:02:19;;;;;;;4.33;3.87;;;;;;;35.68;32.26;99135.13;7005154;28;20290;-85
2023/07/10 09:05:45;;;;;;;6.17;4.00;;;;;;;35.97;32.08;99139.50;7003849;28;20197;-86
2023/07/10 09:09:19;;;;;;;5.43;4.07;;;;;;;35.68;31.94;99145.53;6996939;28;20359;-85
2023/07/10 09:12:42;;;;;;;5.43;4.20;;;;;;;35.22;33.08;99151.88;6996628;28;20192;-86
2023/07/10 09:16:13;;;;;;;6.20;4.63;;;;;;;35.07;32.76;99141.44;6995611;28;20338;-86
2023/07/10 09:19:35;;;;;;;6.37;4.30;;;;;;;35.05;32.74;99166.19;6996316;28;20256;-86
2023/07/10 09:22:59;;;;;;;6.37;4.10;;;;;;;35.20;32.54;99098.94;6996168;28;20209;-86
2023/07/10 09:26:24;;;;;;;5.40;3.97;;;;;;;35.81;31.77;99130.25;6995841;28;20213;-86
2023/07/10 09:29:48;;;;;;;5.43;4.27;;;;;;;35.86;32.16;99115.97;6996783;28;20228;-89
2023/07/10 09:33:11;;;;;;;6.07;4.50;;;;;;;35.51;33.29;99171.97;6995389;28;20348;-87
2023/07/10 09:36:33;;;;;;;7.37;4.20;;;;;;;36.08;32.28;99172.25;6996253;28;20291;-87
2023/07/10 09:39:55;;;;;;;3.97;3.57;;;;;;;35.94;32.06;99174.72;6996648;28;20718;-87
2023/07/10 09:43:18;;;;;;;4.97;4.30;;;;;;;34.83;33.74;99099.50;6996866;28;20206;-85
2023/07/10 09:46:40;;;;;;;5.37;4.23;;;;;;;35.25;33.66;99173.63;6996778;28;20226;-84
2023/07/10 09:50:03;;;;;;;6.00;4.30;;;;;;;35.47;33.85;99170.22;6996590;28;20809;-86
2023/07/10 09:53:30;;;;;;;7.60;4.27;;;;;;;36.31;32.41;99176.06;6997136;28;20225;-87
2023/07/10 09:56:54;;;;;;;6.23;4.10;;;;;;;35.39;33.55;99157.19;6995532;28;20207;-86
2023/07/10 10:00:17;;;;;;;5.80;4.37;;;;;;;33.88;35.23;99096.50;6996113;28;20679;-87
2023/07/10 10:03:41;;;;;;;7.33;4.60;;;;;;;34.85;33.81;99159.59;6995757;28;20209;-87
2023/07/10 10:07:06;;;;;;;5.70;4.70;;;;;;;35.13;33.88;99163.22;6995302;28;20259;-87
2023/07/10 10:10:29;;;;;;;7.10;4.37;;;;;;;34.92;34.03;99161.81;6997474;28;20292;-86
2023/07/10 10:13:56;;;;;;;9.50;4.77;;;;;;;35.60;33.09;99160.56;6998900;28;20747;-86
2023/07/10 10:17:20;;;;;;;6.27;4.43;;;;;;;35.44;33.19;99154.13;7001087;28;20593;-82
2023/07/10 10:20:42;;;;;;;4.60;4.20;;;;;;;34.82;34.55;99145.50;6976439;28;20257;-82
2023/07/10 10:24:10;;;;;;;5.37;4.40;;;;;;;34.32;34.97;99140.31;6988219;28;20331;-85
2023/07/10 10:27:37;;;;;;;4.77;4.27;;;;;;;34.18;34.90;99125.03;7000854;28;20233;-84
2023/07/10 10:30:59;;;;;;;6.27;4.83;;;;;;;34.83;34.07;99136.72;7001153;28;20255;-84
2023/07/10 10:34:31;;;;;;;5.97;4.60;;;;;;;34.70;34.33;99142.69;7001771;28;20202;-83
2023/07/10 10:38:04;;;;;;;5.50;4.50;;;;;;;34.96;33.65;99138.31;7004240;28;20319;-83
2023/07/10 10:41:45;;;;;;;5.10;4.40;;;;;;;35.47;32.72;99106.53;7002895;28;20683;-85
2023/07/10 10:45:13;;;;;;;6.40;4.40;;;;;;;35.92;32.31;99128.53;7002540;28;20197;-84
2023/07/10 10:48:39;;;;;;;5.60;5.00;;;;;;;36.04;31.30;99097.56;6999798;28;20618;-84
2023/07/10 10:52:06;;;;;;;6.00;5.37;;;;;;;36.05;31.89;99127.25;6999832;28;20722;-84
2023/07/10 10:55:33;;;;;;;7.03;4.80;;;;;;;36.65;31.02;99130.31;7002018;28;20198;-85
2023/07/10 10:59:14;;;;;;;6.37;4.90;;;;;;;35.87;32.56;99126.81;7001535;28;20283;-84
2023/07/10 11:02:47;;;;;;;5.97;4.50;;;;;;;35.08;33.33;99135.44;7002606;28;20317;-84
2023/07/10 11:06:30;;;;;;;7.20;4.80;;;;;;;35.18;33.60;99123.72;7001582;28;20190;-84
2023/07/10 11:09:54;;;;;;;7.83;4.70;;;;;;;37.01;31.09;99110.19;7000840;28;20228;-84
2023/07/10 11:13:20;;;;;;;5.43;4.83;;;;;;;36.84;30.04;99104.22;7000403;28;20797;-84
2023/07/10 11:16:44;;;;;;;5.57;4.70;;;;;;;36.77;30.80;99110.50;6998560;28;20304;-85
2023/07/10 11:20:07;;;;;;;5.37;4.30;;;;;;;36.72;30.75;99079.88;6984443;28;20244;-83
2023/07/10 11:23:33;;;;;;;7.50;4.50;;;;;;;37.31;30.12;99085.91;6997479;28;20208;-84
2023/07/10 11:26:59;;;;;;;5.07;4.57;;;;;;;37.85;29.37;99078.00;6970807;28;20197;-83
2023/07/10 11:30:32;;;;;;;5.17;4.40;;;;;;;37.55;29.21;99036.91;6976131;28;20757;-84
2023/07/10 11:34:33;;;;;;;5.20;4.68;;;;;;;38.55;28.29;99072.69;7025326;28;20285;-84
2023/07/10 11:38:15;;;;;;;5.37;4.23;;;;;;;36.24;30.88;99071.97;6991878;28;20320;-85
2023/07/10 11:41:38;;;;;;;5.40;4.80;;;;;;;37.30;30.36;99075.84;6998696;28;20213;-83
2023/07/10 11:45:00;;;;;;;7.07;4.53;;;;;;;36.88;30.26;99060.13;6998899;28;20240;-83
2023/07/10 11:48:35;;;;;;;7.00;5.03;;;;;;;36.16;30.72;99061.75;6997614;28;20229;-83
2023/07/10 11:52:26;;;;;;;7.30;4.70;;;;;;;36.20;30.86;99067.47;6995249;28;20190;-83
2023/07/10 11:55:57;;;;;;;8.37;4.83;;;;;;;35.66;31.25;99075.75;6994577;28;20675;-82
2023/07/10 11:59:21;;;;;;;5.83;4.97;;;;;;;36.40;29.98;99050.28;6997729;28;20225;-83
2023/07/10 12:02:45;;;;;;;5.90;4.70;;;;;;;37.31;29.01;99062.59;6998120;28;20555;-83
2023/07/10 12:06:15;;;;;;;4.90;4.40;;;;;;;37.61;28.67;99066.38;6997833;28;20293;-84
2023/07/10 12:09:38;;;;;;;6.10;4.13;;;;;;;37.45;28.56;99052.41;7000476;28;20256;-84
2023/07/10 12:13:00;;;;;;;5.33;4.60;;;;;;;37.89;27.19;99047.13;6998509;28;20559;-83
2023/07/10 12:16:22;;;;;;;7.03;4.23;;;;;;;38.15;26.92;99041.50;6997786;28;20350;-84
2023/07/10 12:19:44;;;;;;;5.13;4.40;;;;;;;37.76;27.04;99048.50;6998786;28;20221;-84
2023/07/10 12:23:08;;;;;;;5.57;5.00;;;;;;;38.04;25.94;99037.72;7000346;28;20206;-83
2023/07/10 12:26:31;;;;;;;5.40;4.17;;;;;;;38.03;26.03;99033.28;6999051;28;20296;-83
2023/07/10 12:29:55;;;;;;;7.07;4.00;;;;;;;38.84;24.56;99047.25;6995964;28;20590;-83
2023/07/10 12:33:30;;;;;;;6.77;4.20;;;;;;;38.15;25.51;99027.41;6997421;28;20277;-83
2023/07/10 12:36:53;;;;;;;4.45;4.05;;;;;;;38.64;24.32;99028.06;6999263;28;20278;-84
2023/07/10 12:40:15;;;;;;;5.60;4.13;;;;;;;37.50;25.79;99023.13;7000345;28;20255;-83
2023/07/10 12:43:38;;;;;;;5.57;4.30;;;;;;;37.33;25.17;99024.47;7001519;28;20676;-84
2023/07/10 12:47:10;;;;;;;4.73;4.23;;;;;;;37.76;24.48;99021.19;6999831;28;20685;-83
2023/07/10 12:50:35;;;;;;;4.80;4.30;;;;;;;38.07;24.44;99022.88;6994645;28;20611;-83
2023/07/10 12:53:59;;;;;;;7.83;4.20;;;;;;;38.76;23.82;99019.34;6999856;28;20693;-83
2023/07/10 12:57:23;;;;;;;6.67;4.30;;;;;;;38.18;24.21;99021.81;6999623;28;20239;-83
2023/07/10 13:00:55;;;;;;;4.87;3.83;;;;;;;38.09;25.00;99007.19;6998500;28;20198;-83
2023/07/10 13:04:22;;;;;;;8.03;4.67;;;;;;;38.46;23.62;99015.78;6998361;28;20250;-83
2023/07/10 13:07:44;;;;;;;7.17;4.20;;;;;;;38.01;23.78;98996.25;6994353;28;20222;-83
2023/07/10 13:11:06;;;;;;;4.87;4.13;;;;;;;37.34;24.57;98936.06;6997342;28;20277;-83
2023/07/10 13:14:29;;;;;;;4.87;4.07;;;;;;;37.46;25.08;99008.19;6997350;28;20300;-83
2023/07/10 13:17:55;;;;;;;4.50;4.00;;;;;;;37.82;24.31;99010.38;6997253;28;20226;-84
2023/07/10 13:21:18;;;;;;;8.73;4.40;;;;;;;37.82;24.52;99007.56;6997981;28;20599;-83
2023/07/10 13:24:40;;;;;;;8.93;3.83;;;;;;;37.29;24.58;99003.06;6986121;28;20218;-83
2023/07/10 13:28:16;;;;;;;5.23;4.33;;;;;;;37.83;24.29;98992.31;6968974;28;20226;-84
2023/07/10 13:31:37;;;;;;;6.60;5.87;;;;;;;37.41;24.74;98971.91;6971042;28;20186;-84
2023/07/10 13:35:00;;;;;;;6.03;4.70;;;;;;;37.51;23.82;98931.88;6968779;28;20340;-84
2023/07/10 13:38:22;;;;;;;10.87;4.27;;;;;;;37.47;23.14;98987.28;6970387;28;20268;-84
2023/07/10 13:41:44;;;;;;;5.83;4.07;;;;;;;37.08;23.71;98957.69;6970772;28;20315;-84
2023/07/10 13:45:07;;;;;;;8.77;4.23;;;;;;;38.29;22.99;98979.69;6973410;28;20678;-84
2023/07/10 13:48:29;;;;;;;5.55;3.80;;;;;;;38.04;23.38;99001.91;6971234;28;20238;-85
2023/07/10 13:51:52;;;;;;;4.90;4.40;;;;;;;37.46;23.71;98982.84;6976076;28;20340;-84
2023/07/10 13:55:14;;;;;;;6.40;4.10;;;;;;;37.95;22.71;98967.56;6974324;28;20189;-84
2023/07/10 13:58:35;;;;;;;4.67;4.00;;;;;;;37.93;23.53;98986.84;6973357;28;20769;-84
2023/07/10 14:01:57;;;;;;;5.37;4.47;;;;;;;38.15;23.05;98976.72;6973868;28;20364;-83
2023/07/10 14:05:20;;;;;;;4.00;3.67;;;;;;;38.19;22.38;98878.97;6973290;28;20206;-84
2023/07/10 14:08:43;;;;;;;5.17;3.90;;;;;;;38.50;23.05;98991.28;6973027;28;20340;-84
2023/07/10 14:12:04;;;;;;;5.18;4.00;;;;;;;38.45;22.71;98986.81;6994072;28;20341;-84
2023/07/10 14:15:26;;;;;;;4.00;3.60;;;;;;;38.08;23.71;98985.06;7000863;28;20370;-84
2023/07/10 14:18:48;;;;;;;4.37;3.97;;;;;;;38.32;22.82;98982.56;7000767;28;20230;-83
2023/07/10 14:22:10;;;;;;;4.43;4.00;;;;;;;38.14;23.28;98978.69;7000827;28;20304;-84
2023/07/10 14:25:33;;;;;;;5.73;4.00;;;;;;;38.11;23.56;98982.28;6997882;28;20236;-84
2023/07/10 14:28:58;;;;;;;5.67;4.10;;;;;;;38.44;23.09;98975.91;6975943;28;20763;-83
2023/07/10 14:32:21;;;;;;;5.25;4.15;;;;;;;38.44;22.99;98976.69;6974204;28;20233;-84
2023/07/10 14:35:45;;;;;;;4.55;3.83;;;;;;;38.49;22.86;98981.19;6971913;28;20198;-84
2023/07/10 14:39:08;;;;;;;6.33;4.40;;;;;;;38.86;22.72;98984.88;6974575;28;20368;-83
2023/07/10 14:42:31;;;;;;;5.43;4.17;;;;;;;38.07;22.86;98877.22;6974210;28;20826;-82
2023/07/10 14:45:55;;;;;;;5.67;3.90;;;;;;;38.14;23.48;98967.44;6973749;28;20233;-83
2023/07/10 14:49:17;;;;;;;6.68;3.95;;;;;;;38.21;23.28;98938.56;6974526;28;20662;-83
2023/07/10 14:52:40;;;;;;;4.90;4.10;;;;;;;38.35;23.60;98964.06;6999385;28;20201;-83
2023/07/10 14:56:01;;;;;;;5.00;4.37;;;;;;;38.36;22.89;98968.50;7001181;28;20948;-83
2023/07/10 14:59:24;;;;;;;5.83;4.23;;;;;;;37.92;22.90;98959.06;6998736;28;20713;-83
2023/07/10 15:02:46;;;;;;;6.33;4.37;;;;;;;36.74;24.87;98961.47;7002063;28;20210;-82
2023/07/10 15:06:21;;;;;;;5.97;4.07;;;;;;;37.47;23.87;98959.97;6997896;28;20202;-82
2023/07/10 15:09:43;;;;;;;5.10;4.03;;;;;;;37.47;23.85;98976.03;7001008;28;20308;-83
2023/07/10 15:13:13;;;;;;;7.97;4.47;;;;;;;37.34;24.22;98955.75;7001503;28;20681;-83
2023/07/10 15:16:37;;;;;;;8.50;3.93;;;;;;;37.28;24.17;98954.44;6999743;28;20288;-83
2023/07/10 15:19:58;;;;;;;5.53;3.97;;;;;;;36.77;24.28;98941.03;7003362;28;20368;-83
2023/07/10 15:23:22;;;;;;;8.73;4.60;;;;;;;37.55;24.07;98950.47;6996184;28;20240;-85
2023/07/10 15:26:43;;;;;;;4.97;3.93;;;;;;;37.45;24.01;98962.38;7002039;28;20271;-83
2023/07/10 15:30:06;;;;;;;5.50;4.07;;;;;;;37.51;23.39;98958.03;7002379;28;20368;-83
2023/07/10 15:33:31;;;;;;;4.57;4.17;;;;;;;37.35;24.08;98960.19;6999558;28;20271;-84
2023/07/10 15:36:54;;;;;;;5.40;4.47;;;;;;;36.25;24.42;98938.78;6998751;28;20303;-82
2023/07/10 15:40:17;;;;;;;5.47;4.40;;;;;;;36.42;24.93;98951.59;6998244;28;20323;-81
2023/07/10 15:43:40;;;;;;;4.43;3.67;;;;;;;37.40;24.03;98942.16;6992126;28;20293;-84
2023/07/10 15:47:05;;;;;;;11.43;6.33;;;;;;;37.32;24.05;98957.31;6971634;28;20517;-85
2023/07/10 15:50:29;;;;;;;6.20;5.60;;;;;;;36.76;24.37;98922.53;6982608;28;20279;-84
2023/07/10 15:53:51;;;;;;;5.70;4.43;;;;;;;36.54;24.41;98940.19;6973992;28;20637;-87
2023/07/10 15:57:12;;;;;;;5.93;4.63;;;;;;;36.99;24.04;98952.31;6970430;28;20273;-85
2023/07/10 16:00:37;;;;;;;4.57;4.00;;;;;;;36.82;24.36;98949.16;6972379;28;20233;-84